sensor_id;sensor_type;location;lat;lon;timestamp;pressure;altitude;pressure_sealevel;temperature;humidity
69766;BME280;57039;48.014;21.384;2023-10-09T00:00:16;101648.06;;;6.44;80.89
69766;BME280;57039;48.014;21.384;2023-10-09T00:01:38;101636.00;;;6.38;81.03
69766;BME280;57039;48.014;21.384;2023-10-09T00:02:42;101635.88;;;6.46;80.42
69766;BME280;57039;48.014;21.384;2023-10-09T00:03:47;101635.75;;;6.52;80.31
69766;BME280;57039;48.014;21.384;2023-10-09T00:04:57;101641.88;;;6.50;80.40
69766;BME280;57039;48.014;21.384;2023-10-09T00:06:00;101638.41;;;6.49;80.84
69766;BME280;57039;48.014;21.384;2023-10-09T00:07:05;101632.41;;;6.44;81.09
69766;BME280;57039;48.014;21.384;2023-10-09T00:08:14;101639.41;;;6.42;81.24
69766;BME280;57039;48.014;21.384;2023-10-09T00:09:35;101639.50;;;6.37;81.39
69766;BME280;57039;48.014;21.384;2023-10-09T00:10:49;101636.00;;;6.38;81.43
69766;BME280;57039;48.014;21.384;2023-10-09T00:11:56;101637.81;;;6.35;81.71
69766;BME280;57039;48.014;21.384;2023-10-09T00:13:00;101642.34;;;6.25;81.97
69766;BME280;57039;48.014;21.384;2023-10-09T00:14:03;101637.22;;;6.19;82.30
69766;BME280;57039;48.014;21.384;2023-10-09T00:15:08;101635.69;;;6.10;82.72
69766;BME280;57039;48.014;21.384;2023-10-09T00:16:16;101637.44;;;6.08;83.21
69766;BME280;57039;48.014;21.384;2023-10-09T00:17:20;101626.19;;;6.06;83.52
69766;BME280;57039;48.014;21.384;2023-10-09T00:18:25;101637.50;;;6.04;83.79
69766;BME280;57039;48.014;21.384;2023-10-09T00:19:32;101638.41;;;6.01;84.18
69766;BME280;57039;48.014;21.384;2023-10-09T00:20:36;101635.81;;;6.01;84.38
69766;BME280;57039;48.014;21.384;2023-10-09T00:21:46;101632.34;;;6.01;84.37
69766;BME280;57039;48.014;21.384;2023-10-09T00:22:49;101637.56;;;6.02;84.39
69766;BME280;57039;48.014;21.384;2023-10-09T00:23:54;101632.34;;;6.01;84.38
69766;BME280;57039;48.014;21.384;2023-10-09T00:25:02;101634.88;;;6.05;84.31
69766;BME280;57039;48.014;21.384;2023-10-09T00:26:14;101631.38;;;6.06;84.12
69766;BME280;57039;48.014;21.384;2023-10-09T00:27:21;101626.97;;;6.11;83.93
69766;BME280;57039;48.014;21.384;2023-10-09T00:28:26;101621.75;;;6.11;83.73
69766;BME280;57039;48.014;21.384;2023-10-09T00:29:29;101626.19;;;6.06;83.60
69766;BME280;57039;48.014;21.384;2023-10-09T00:30:41;101626.13;;;6.09;83.48
69766;BME280;57039;48.014;21.384;2023-10-09T00:31:44;101619.16;;;6.11;83.17
69766;BME280;57039;48.014;21.384;2023-10-09T00:32:52;101626.13;;;6.09;83.18
69766;BME280;57039;48.014;21.384;2023-10-09T00:34:04;101618.25;;;6.12;83.10
69766;BME280;57039;48.014;21.384;2023-10-09T00:35:08;101612.19;;;6.12;83.07
69766;BME280;57039;48.014;21.384;2023-10-09T00:36:29;101614.00;;;6.08;83.53
69766;BME280;57039;48.014;21.384;2023-10-09T00:37:32;101619.38;;;5.98;84.09
69766;BME280;57039;48.014;21.384;2023-10-09T00:38:37;101613.44;;;5.89;84.37
69766;BME280;57039;48.014;21.384;2023-10-09T00:39:47;101613.50;;;5.85;84.71
69766;BME280;57039;48.014;21.384;2023-10-09T00:40:52;101611.06;;;5.76;85.04
69766;BME280;57039;48.014;21.384;2023-10-09T00:42:15;101612.03;;;5.71;85.38
69766;BME280;57039;48.014;21.384;2023-10-09T00:43:25;101609.53;;;5.65;85.68
69766;BME280;57039;48.014;21.384;2023-10-09T00:44:31;101607.00;;;5.59;86.08
69766;BME280;57039;48.014;21.384;2023-10-09T00:45:42;101607.88;;;5.58;86.36
69766;BME280;57039;48.014;21.384;2023-10-09T00:46:47;101601.78;;;5.61;86.53
69766;BME280;57039;48.014;21.384;2023-10-09T00:47:51;101599.13;;;5.65;86.56
69766;BME280;57039;48.014;21.384;2023-10-09T00:48:56;101604.22;;;5.70;86.48
69766;BME280;57039;48.014;21.384;2023-10-09T00:50:05;101601.72;;;5.65;86.76
69766;BME280;57039;48.014;21.384;2023-10-09T00:51:18;101600.03;;;5.61;86.98
69766;BME280;57039;48.014;21.384;2023-10-09T00:52:27;101596.72;;;5.52;87.35
69766;BME280;57039;48.014;21.384;2023-10-09T00:53:34;101614.09;;;5.51;87.34
69766;BME280;57039;48.014;21.384;2023-10-09T00:54:37;101611.59;;;5.45;87.29
69766;BME280;57039;48.014;21.384;2023-10-09T00:55:44;101616.84;;;5.42;87.60
69766;BME280;57039;48.014;21.384;2023-10-09T00:56:48;101605.75;;;5.29;87.67
69766;BME280;57039;48.014;21.384;2023-10-09T00:58:03;101622.09;;;5.37;87.89
69766;BME280;57039;48.014;21.384;2023-10-09T00:59:08;101619.59;;;5.33;88.25
69766;BME280;57039;48.014;21.384;2023-10-09T01:00:17;101614.41;;;5.31;88.39
69766;BME280;57039;48.014;21.384;2023-10-09T01:01:49;101613.53;;;5.31;88.72
69766;BME280;57039;48.014;21.384;2023-10-09T01:03:08;101616.16;;;5.29;89.00
69766;BME280;57039;48.014;21.384;2023-10-09T01:04:21;101621.41;;;5.28;89.41
69766;BME280;57039;48.014;21.384;2023-10-09T01:05:24;101622.25;;;5.30;89.56
69766;BME280;57039;48.014;21.384;2023-10-09T01:06:29;101612.66;;;5.33;89.62
69766;BME280;57039;48.014;21.384;2023-10-09T01:07:37;101613.44;;;5.37;89.65
69766;BME280;57039;48.014;21.384;2023-10-09T01:08:43;101617.06;;;5.28;89.82
69766;BME280;57039;48.014;21.384;2023-10-09T01:09:46;101616.19;;;5.26;90.04
69766;BME280;57039;48.014;21.384;2023-10-09T01:10:52;101619.69;;;5.26;90.24
69766;BME280;57039;48.014;21.384;2023-10-09T01:11:59;101623.94;;;5.31;90.26
69766;BME280;57039;48.014;21.384;2023-10-09T01:13:01;101629.28;;;5.21;90.31
69766;BME280;57039;48.014;21.384;2023-10-09T01:14:06;101633.66;;;5.21;90.45
69766;BME280;57039;48.014;21.384;2023-10-09T01:15:12;101634.50;;;5.20;90.50
69766;BME280;57039;48.014;21.384;2023-10-09T01:16:38;101629.44;;;5.12;90.59
69766;BME280;57039;48.014;21.384;2023-10-09T01:17:44;101643.09;;;5.26;90.60
69766;BME280;57039;48.014;21.384;2023-10-09T01:19:54;101629.47;;;5.09;90.53
69766;BME280;57039;48.014;21.384;2023-10-09T01:20:59;101577.88;;;4.80;90.65
69766;BME280;57039;48.014;21.384;2023-10-09T01:22:05;101643.25;;;5.14;90.85
69766;BME280;57039;48.014;21.384;2023-10-09T01:23:16;101640.72;;;5.10;91.08
69766;BME280;57039;48.014;21.384;2023-10-09T01:24:19;101637.28;;;5.09;91.20
69766;BME280;57039;48.014;21.384;2023-10-09T01:25:23;101635.59;;;5.05;91.36
69766;BME280;57039;48.014;21.384;2023-10-09T01:26:26;101634.75;;;5.03;91.41
69766;BME280;57039;48.014;21.384;2023-10-09T01:27:29;101635.66;;;5.00;91.42
69766;BME280;57039;48.014;21.384;2023-10-09T01:28:35;101610.72;;;4.86;91.46
69766;BME280;57039;48.014;21.384;2023-10-09T01:29:38;101627.06;;;4.97;91.45
69766;BME280;57039;48.014;21.384;2023-10-09T01:30:44;101628.84;;;4.92;91.59
69766;BME280;57039;48.014;21.384;2023-10-09T01:31:50;101617.69;;;4.84;91.99
69766;BME280;57039;48.014;21.384;2023-10-09T01:33:03;101631.53;;;4.86;92.65
69766;BME280;57039;48.014;21.384;2023-10-09T01:34:14;101624.56;;;4.88;93.15
69766;BME280;57039;48.014;21.384;2023-10-09T01:35:18;101630.59;;;4.91;93.21
69766;BME280;57039;48.014;21.384;2023-10-09T01:36:24;101621.81;;;4.98;93.07
69766;BME280;57039;48.014;21.384;2023-10-09T01:37:34;101621.84;;;4.97;93.01
69766;BME280;57039;48.014;21.384;2023-10-09T01:38:39;101628.72;;;5.01;92.92
69766;BME280;57039;48.014;21.384;2023-10-09T01:39:48;101626.06;;;5.02;92.68
69766;BME280;57039;48.014;21.384;2023-10-09T01:40:51;101630.41;;;5.03;92.24
69766;BME280;57039;48.014;21.384;2023-10-09T01:41:55;101626.87;;;5.08;91.88
69766;BME280;57039;48.014;21.384;2023-10-09T01:43:01;101620.88;;;5.06;91.57
69766;BME280;57039;48.014;21.384;2023-10-09T01:44:06;101640.72;;;5.10;91.49
69766;BME280;57039;48.014;21.384;2023-10-09T01:45:15;101633.81;;;5.09;91.22
69766;BME280;57039;48.014;21.384;2023-10-09T01:46:19;101635.53;;;5.08;90.96
69766;BME280;57039;48.014;21.384;2023-10-09T01:47:23;101641.62;;;5.09;90.74
69766;BME280;57039;48.014;21.384;2023-10-09T01:48:28;101640.75;;;5.08;90.54
69766;BME280;57039;48.014;21.384;2023-10-09T01:49:36;101646.03;;;5.03;90.40
69766;BME280;57039;48.014;21.384;2023-10-09T01:50:42;101657.25;;;5.07;90.25
69766;BME280;57039;48.014;21.384;2023-10-09T01:51:47;101590.22;;;4.64;90.13
69766;BME280;57039;48.014;21.384;2023-10-09T01:52:51;101657.28;;;5.04;90.13
69766;BME280;57039;48.014;21.384;2023-10-09T01:53:54;101648.72;;;4.97;90.14
69766;BME280;57039;48.014;21.384;2023-10-09T01:55:00;101658.22;;;4.98;90.22
69766;BME280;57039;48.014;21.384;2023-10-09T01:56:10;101653.06;;;4.95;90.33
69766;BME280;57039;48.014;21.384;2023-10-09T01:57:18;101652.25;;;4.92;90.65
69766;BME280;57039;48.014;21.384;2023-10-09T01:58:28;101648.84;;;4.87;90.87
69766;BME280;57039;48.014;21.384;2023-10-09T01:59:35;101649.72;;;4.86;90.95
69766;BME280;57039;48.014;21.384;2023-10-09T02:00:40;101645.41;;;4.85;90.97
69766;BME280;57039;48.014;21.384;2023-10-09T02:01:52;101642.00;;;4.79;90.88
69766;BME280;57039;48.014;21.384;2023-10-09T02:02:57;101642.88;;;4.78;90.82
69766;BME280;57039;48.014;21.384;2023-10-09T02:04:06;101635.09;;;4.77;90.85
69766;BME280;57039;48.014;21.384;2023-10-09T02:05:16;101638.56;;;4.79;90.81
69766;BME280;57039;48.014;21.384;2023-10-09T02:06:19;101648.09;;;4.77;90.81
69766;BME280;57039;48.014;21.384;2023-10-09T02:07:31;101644.69;;;4.73;90.84
69766;BME280;57039;48.014;21.384;2023-10-09T02:08:44;101636.97;;;4.66;90.89
69766;BME280;57039;48.014;21.384;2023-10-09T02:09:52;101636.97;;;4.67;90.82
69766;BME280;57039;48.014;21.384;2023-10-09T02:10:56;101637.91;;;4.60;90.84
69766;BME280;57039;48.014;21.384;2023-10-09T02:12:00;101642.25;;;4.60;90.82
69766;BME280;57039;48.014;21.384;2023-10-09T02:13:06;101640.56;;;4.55;90.82
69766;BME280;57039;48.014;21.384;2023-10-09T02:14:10;101638.06;;;4.49;91.07
69766;BME280;57039;48.014;21.384;2023-10-09T02:15:23;101645.06;;;4.40;91.28
69766;BME280;57039;48.014;21.384;2023-10-09T02:16:47;101605.69;;;3.99;91.66
69766;BME280;57039;48.014;21.384;2023-10-09T02:18:05;101655.69;;;4.20;92.33
69766;BME280;57039;48.014;21.384;2023-10-09T02:19:20;101654.84;;;4.18;92.93
69766;BME280;57039;48.014;21.384;2023-10-09T02:22:03;101635.94;;;4.05;94.27
69766;BME280;57039;48.014;21.384;2023-10-09T02:23:15;101629.00;;;4.07;94.79
69766;BME280;57039;48.014;21.384;2023-10-09T02:24:24;101636.78;;;4.05;95.10
69766;BME280;57039;48.014;21.384;2023-10-09T02:25:50;101637.56;;;4.14;95.28
69766;BME280;57039;48.014;21.384;2023-10-09T02:26:56;101636.72;;;4.11;95.53
69766;BME280;57039;48.014;21.384;2023-10-09T02:27:59;101651.38;;;4.17;95.74
69766;BME280;57039;48.014;21.384;2023-10-09T02:29:02;101650.50;;;4.18;95.95
69766;BME280;57039;48.014;21.384;2023-10-09T02:30:17;101650.47;;;4.23;96.14
69766;BME280;57039;48.014;21.384;2023-10-09T02:31:30;101645.19;;;4.27;96.39
69766;BME280;57039;48.014;21.384;2023-10-09T02:32:59;101638.34;;;4.25;96.57
69766;BME280;57039;48.014;21.384;2023-10-09T02:34:10;101638.31;;;4.28;96.77
69766;BME280;57039;48.014;21.384;2023-10-09T02:35:19;101631.44;;;4.22;97.01
69766;BME280;57039;48.014;21.384;2023-10-09T02:36:24;101624.53;;;4.20;97.13
69766;BME280;57039;48.014;21.384;2023-10-09T02:37:27;101628.81;;;4.22;97.27
69766;BME280;57039;48.014;21.384;2023-10-09T02:38:31;101621.84;;;4.24;97.40
69766;BME280;57039;48.014;21.384;2023-10-09T02:39:36;101629.69;;;4.21;97.44
69766;BME280;57039;48.014;21.384;2023-10-09T02:40:45;101634.00;;;4.24;97.55
69766;BME280;57039;48.014;21.384;2023-10-09T02:42:03;101635.72;;;4.25;97.66
69766;BME280;57039;48.014;21.384;2023-10-09T02:43:15;101637.44;;;4.24;97.87
69766;BME280;57039;48.014;21.384;2023-10-09T02:44:20;101639.25;;;4.19;98.00
69766;BME280;57039;48.014;21.384;2023-10-09T02:45:27;101628.88;;;4.19;98.15
69766;BME280;57039;48.014;21.384;2023-10-09T02:46:37;101625.41;;;4.17;98.35
69766;BME280;57039;48.014;21.384;2023-10-09T02:47:43;101628.91;;;4.15;98.58
69766;BME280;57039;48.014;21.384;2023-10-09T02:48:49;101626.31;;;4.15;98.78
69766;BME280;57039;48.014;21.384;2023-10-09T02:49:55;101628.91;;;4.15;99.01
69766;BME280;57039;48.014;21.384;2023-10-09T02:51:03;101627.19;;;4.14;99.21
69766;BME280;57039;48.014;21.384;2023-10-09T02:52:07;101626.37;;;4.10;99.37
69766;BME280;57039;48.014;21.384;2023-10-09T02:53:10;101616.81;;;4.12;99.50
69766;BME280;57039;48.014;21.384;2023-10-09T02:54:20;101615.09;;;4.11;99.58
69766;BME280;57039;48.014;21.384;2023-10-09T02:55:23;101612.44;;;4.17;99.66
69766;BME280;57039;48.014;21.384;2023-10-09T02:56:28;101611.53;;;4.18;99.77
69766;BME280;57039;48.014;21.384;2023-10-09T02:57:43;101611.53;;;4.18;99.83
69766;BME280;57039;48.014;21.384;2023-10-09T02:58:48;101613.28;;;4.18;99.86
69766;BME280;57039;48.014;21.384;2023-10-09T02:59:50;101612.41;;;4.19;99.89
69766;BME280;57039;48.014;21.384;2023-10-09T03:00:58;101615.88;;;4.19;99.92
69766;BME280;57039;48.014;21.384;2023-10-09T03:02:02;101619.28;;;4.21;99.96
69766;BME280;57039;48.014;21.384;2023-10-09T03:03:04;101611.50;;;4.23;99.99
69766;BME280;57039;48.014;21.384;2023-10-09T03:04:10;101611.47;;;4.24;100.00
69766;BME280;57039;48.014;21.384;2023-10-09T03:05:17;101615.84;;;4.22;100.00
69766;BME280;57039;48.014;21.384;2023-10-09T03:06:21;101612.34;;;4.23;100.00
69766;BME280;57039;48.014;21.384;2023-10-09T03:07:31;101615.81;;;4.24;100.00
69766;BME280;57039;48.014;21.384;2023-10-09T03:08:34;101554.78;;;3.84;99.98
69766;BME280;57039;48.014;21.384;2023-10-09T03:09:39;101619.28;;;4.23;100.00
69766;BME280;57039;48.014;21.384;2023-10-09T03:10:44;101616.69;;;4.21;100.00
69766;BME280;57039;48.014;21.384;2023-10-09T03:11:49;101625.34;;;4.22;100.00
69766;BME280;57039;48.014;21.384;2023-10-09T03:12:56;101629.69;;;4.21;100.00
69766;BME280;57039;48.014;21.384;2023-10-09T03:13:59;101627.09;;;4.21;100.00
69766;BME280;57039;48.014;21.384;2023-10-09T03:15:03;101633.16;;;4.20;99.94
69766;BME280;57039;48.014;21.384;2023-10-09T03:16:09;101631.44;;;4.21;99.87
69766;BME280;57039;48.014;21.384;2023-10-09T03:17:17;101607.38;;;4.05;99.75
69766;BME280;57039;48.014;21.384;2023-10-09T03:18:20;101577.22;;;3.90;99.70
69766;BME280;57039;48.014;21.384;2023-10-09T03:19:28;101630.59;;;4.17;99.59
69766;BME280;57039;48.014;21.384;2023-10-09T03:20:31;101631.50;;;4.15;99.53
69766;BME280;57039;48.014;21.384;2023-10-09T03:21:34;101630.56;;;4.20;99.53
69766;BME280;57039;48.014;21.384;2023-10-09T03:22:41;101636.63;;;4.21;99.47
69766;BME280;57039;48.014;21.384;2023-10-09T03:23:46;101622.81;;;4.17;99.42
69766;BME280;57039;48.014;21.384;2023-10-09T03:24:52;101625.34;;;4.23;99.34
69766;BME280;57039;48.014;21.384;2023-10-09T03:25:55;101609.72;;;4.28;99.24
69766;BME280;57039;48.014;21.384;2023-10-09T03:27:17;101607.97;;;4.27;99.04
69766;BME280;57039;48.014;21.384;2023-10-09T03:28:20;101601.03;;;4.29;98.65
69766;BME280;57039;48.014;21.384;2023-10-09T03:29:24;101609.75;;;4.25;98.20
69766;BME280;57039;48.014;21.384;2023-10-09T03:30:27;101619.19;;;4.30;97.96
69766;BME280;57039;48.014;21.384;2023-10-09T03:31:30;101628.72;;;4.31;97.78
69766;BME280;57039;48.014;21.384;2023-10-09T03:32:33;101635.72;;;4.23;97.55
69766;BME280;57039;48.014;21.384;2023-10-09T03:33:37;101637.47;;;4.21;97.48
69766;BME280;57039;48.014;21.384;2023-10-09T03:34:40;101642.72;;;4.18;97.45
69766;BME280;57039;48.014;21.384;2023-10-09T03:35:44;101650.50;;;4.18;97.50
69766;BME280;57039;48.014;21.384;2023-10-09T03:36:47;101650.56;;;4.12;97.50
69766;BME280;57039;48.014;21.384;2023-10-09T03:37:55;101644.50;;;4.11;97.49
69766;BME280;57039;48.014;21.384;2023-10-09T03:39:20;101640.16;;;4.12;97.48
69766;BME280;57039;48.014;21.384;2023-10-09T03:40:37;101648.03;;;4.07;97.56
69766;BME280;57039;48.014;21.384;2023-10-09T03:41:41;101636.72;;;4.13;97.53
69766;BME280;57039;48.014;21.384;2023-10-09T03:42:44;101624.56;;;4.17;97.38
69766;BME280;57039;48.014;21.384;2023-10-09T03:43:47;101543.69;;;3.70;97.15
69766;BME280;57039;48.014;21.384;2023-10-09T03:44:50;101622.84;;;4.12;97.09
69766;BME280;57039;48.014;21.384;2023-10-09T03:46:00;101628.03;;;4.14;97.04
69766;BME280;57039;48.014;21.384;2023-10-09T03:47:06;101625.50;;;4.08;97.10
69766;BME280;57039;48.014;21.384;2023-10-09T03:48:12;101627.25;;;4.06;97.23
69766;BME280;57039;48.014;21.384;2023-10-09T03:49:18;101619.50;;;4.03;97.36
69766;BME280;57039;48.014;21.384;2023-10-09T03:50:27;101620.37;;;4.02;97.51
69766;BME280;57039;48.014;21.384;2023-10-09T03:51:33;101617.78;;;4.00;97.80
69766;BME280;57039;48.014;21.384;2023-10-09T03:52:36;101620.41;;;3.97;97.99
69766;BME280;57039;48.014;21.384;2023-10-09T03:53:39;101618.66;;;3.99;98.06
69766;BME280;57039;48.014;21.384;2023-10-09T03:54:42;101626.50;;;3.96;98.17
69766;BME280;57039;48.014;21.384;2023-10-09T03:55:47;101617.84;;;3.96;98.19
69766;BME280;57039;48.014;21.384;2023-10-09T03:56:50;101616.91;;;4.03;98.11
69766;BME280;57039;48.014;21.384;2023-10-09T03:57:54;101615.22;;;3.99;97.95
69766;BME280;57039;48.014;21.384;2023-10-09T03:58:58;101610.03;;;3.99;97.96
69766;BME280;57039;48.014;21.384;2023-10-09T04:00:01;101616.03;;;4.01;98.09
69766;BME280;57039;48.014;21.384;2023-10-09T04:01:16;101620.37;;;4.02;98.25
69766;BME280;57039;48.014;21.384;2023-10-09T04:02:31;101633.41;;;3.99;98.47
69766;BME280;57039;48.014;21.384;2023-10-09T04:03:34;101622.19;;;3.94;98.55
69766;BME280;57039;48.014;21.384;2023-10-09T04:04:40;101619.66;;;3.89;98.63
69766;BME280;57039;48.014;21.384;2023-10-09T04:05:50;101616.16;;;3.88;98.74
69766;BME280;57039;48.014;21.384;2023-10-09T04:06:56;101608.41;;;3.85;98.88
69766;BME280;57039;48.014;21.384;2023-10-09T04:07:59;101620.47;;;3.91;99.10
69766;BME280;57039;48.014;21.384;2023-10-09T04:09:08;101625.69;;;3.88;99.20
69766;BME280;57039;48.014;21.384;2023-10-09T04:10:21;101626.56;;;3.87;99.29
69766;BME280;57039;48.014;21.384;2023-10-09T04:11:53;101632.63;;;3.87;99.33
69766;BME280;57039;48.014;21.384;2023-10-09T04:13:15;101627.44;;;3.89;99.52
69766;BME280;57039;48.014;21.384;2023-10-09T04:14:21;101611.78;;;3.97;99.46
69766;BME280;57039;48.014;21.384;2023-10-09T04:15:36;101601.34;;;4.01;99.37
69766;BME280;57039;48.014;21.384;2023-10-09T04:16:39;101612.53;;;4.06;99.22
69766;BME280;57039;48.014;21.384;2023-10-09T04:18:06;101618.56;;;4.10;99.21
69766;BME280;57039;48.014;21.384;2023-10-09T04:19:18;101621.22;;;4.05;99.22
69766;BME280;57039;48.014;21.384;2023-10-09T04:20:24;101620.34;;;4.05;99.26
69766;BME280;57039;48.014;21.384;2023-10-09T04:21:48;101618.56;;;4.08;99.15
69766;BME280;57039;48.014;21.384;2023-10-09T04:22:51;101618.56;;;4.10;99.21
69766;BME280;57039;48.014;21.384;2023-10-09T04:23:54;101615.97;;;4.08;99.13
69766;BME280;57039;48.014;21.384;2023-10-09T04:25:11;101618.62;;;4.04;99.04
69766;BME280;57039;48.014;21.384;2023-10-09T04:26:17;101614.34;;;4.00;98.97
69766;BME280;57039;48.014;21.384;2023-10-09T04:27:23;101607.44;;;3.99;98.99
69766;BME280;57039;48.014;21.384;2023-10-09T04:28:29;101610.88;;;3.99;98.96
69766;BME280;57039;48.014;21.384;2023-10-09T04:29:35;101611.78;;;3.98;99.03
69766;BME280;57039;48.014;21.384;2023-10-09T04:30:42;101611.72;;;4.00;99.16
69766;BME280;57039;48.014;21.384;2023-10-09T04:31:49;101609.16;;;3.98;99.19
69766;BME280;57039;48.014;21.384;2023-10-09T04:32:54;101611.78;;;3.97;99.23
69766;BME280;57039;48.014;21.384;2023-10-09T04:34:06;101618.69;;;3.95;99.42
69766;BME280;57039;48.014;21.384;2023-10-09T04:35:25;101603.13;;;3.95;99.60
69766;BME280;57039;48.014;21.384;2023-10-09T04:36:29;101598.78;;;3.97;99.70
69766;BME280;57039;48.014;21.384;2023-10-09T04:37:38;101593.59;;;3.98;99.72
69766;BME280;57039;48.014;21.384;2023-10-09T04:38:42;101594.34;;;4.08;99.61
69766;BME280;57039;48.014;21.384;2023-10-09T04:40:04;101600.44;;;4.05;99.48
69766;BME280;57039;48.014;21.384;2023-10-09T04:41:33;101602.13;;;4.06;99.34
69766;BME280;57039;48.014;21.384;2023-10-09T04:42:45;101601.25;;;4.10;99.24
69766;BME280;57039;48.014;21.384;2023-10-09T04:44:01;101559.09;;;3.85;99.34
69766;BME280;57039;48.014;21.384;2023-10-09T04:45:22;101609.87;;;4.12;99.52
69766;BME280;57039;48.014;21.384;2023-10-09T04:46:46;101609.03;;;4.09;99.60
69766;BME280;57039;48.014;21.384;2023-10-09T04:48:08;101612.53;;;4.06;99.80
69766;BME280;57039;48.014;21.384;2023-10-09T04:49:12;101599.56;;;4.05;100.00
69766;BME280;57039;48.014;21.384;2023-10-09T04:50:30;101611.56;;;4.15;100.00
69766;BME280;57039;48.014;21.384;2023-10-09T04:51:32;101620.22;;;4.17;100.00
69766;BME280;57039;48.014;21.384;2023-10-09T04:52:39;101558.31;;;3.79;100.00
69766;BME280;57039;48.014;21.384;2023-10-09T04:53:43;101615.03;;;4.16;100.00
69766;BME280;57039;48.014;21.384;2023-10-09T04:55:15;101615.84;;;4.22;100.00
69766;BME280;57039;48.014;21.384;2023-10-09T04:56:20;101618.44;;;4.21;100.00
69766;BME280;57039;48.014;21.384;2023-10-09T04:57:27;101620.16;;;4.23;100.00
69766;BME280;57039;48.014;21.384;2023-10-09T04:58:30;101620.97;;;4.27;100.00
69766;BME280;57039;48.014;21.384;2023-10-09T04:59:35;101614.97;;;4.25;100.00
69766;BME280;57039;48.014;21.384;2023-10-09T05:00:49;101605.38;;;4.27;100.00
69766;BME280;57039;48.014;21.384;2023-10-09T05:02:05;101612.28;;;4.29;100.00
69766;BME280;57039;48.014;21.384;2023-10-09T05:03:09;101606.16;;;4.33;100.00
69766;BME280;57039;48.014;21.384;2023-10-09T05:04:14;101608.72;;;4.37;100.00
69766;BME280;57039;48.014;21.384;2023-10-09T05:05:42;101608.69;;;4.41;100.00
69766;BME280;57039;48.014;21.384;2023-10-09T05:06:46;101609.44;;;4.51;100.00
69766;BME280;57039;48.014;21.384;2023-10-09T05:07:58;101595.59;;;4.52;100.00
69766;BME280;57039;48.014;21.384;2023-10-09T05:09:19;101604.06;;;4.63;100.00
69766;BME280;57039;48.014;21.384;2023-10-09T05:10:23;101585.97;;;4.57;100.00
69766;BME280;57039;48.014;21.384;2023-10-09T05:11:28;101592.75;;;4.69;100.00
69766;BME280;57039;48.014;21.384;2023-10-09T05:12:37;101595.31;;;4.72;100.00
69766;BME280;57039;48.014;21.384;2023-10-09T05:13:48;101592.66;;;4.75;100.00
69766;BME280;57039;48.014;21.384;2023-10-09T05:15:01;101603.88;;;4.78;100.00
69766;BME280;57039;48.014;21.384;2023-10-09T05:16:17;101599.53;;;4.80;100.00
69766;BME280;57039;48.014;21.384;2023-10-09T05:17:31;101596.88;;;4.84;100.00
69766;BME280;57039;48.014;21.384;2023-10-09T05:18:36;101602.03;;;4.87;100.00
69766;BME280;57039;48.014;21.384;2023-10-09T05:19:40;101601.12;;;4.89;100.00
69766;BME280;57039;48.014;21.384;2023-10-09T05:20:58;101599.31;;;4.96;100.00
69766;BME280;57039;48.014;21.384;2023-10-09T05:22:21;101605.28;;;5.02;100.00
69766;BME280;57039;48.014;21.384;2023-10-09T05:23:39;101600.88;;;5.08;100.00
69766;BME280;57039;48.014;21.384;2023-10-09T05:25:12;101597.31;;;5.13;100.00
69766;BME280;57039;48.014;21.384;2023-10-09T05:26:19;101597.22;;;5.19;100.00
69766;BME280;57039;48.014;21.384;2023-10-09T05:27:52;101591.12;;;5.23;100.00
69766;BME280;57039;48.014;21.384;2023-10-09T05:30:27;101590.19;;;5.26;100.00
69766;BME280;57039;48.014;21.384;2023-10-09T05:31:37;101586.66;;;5.30;100.00
69766;BME280;57039;48.014;21.384;2023-10-09T05:32:58;101578.81;;;5.32;99.93
69766;BME280;57039;48.014;21.384;2023-10-09T05:34:02;101592.59;;;5.40;100.00
69766;BME280;57039;48.014;21.384;2023-10-09T05:35:09;101602.03;;;5.45;99.94
69766;BME280;57039;48.014;21.384;2023-10-09T05:36:18;101607.97;;;5.54;99.87
69766;BME280;57039;48.014;21.384;2023-10-09T05:37:26;101599.22;;;5.58;99.78
69766;BME280;57039;48.014;21.384;2023-10-09T05:38:28;101602.63;;;5.63;99.83
69766;BME280;57039;48.014;21.384;2023-10-09T05:39:33;101609.53;;;5.62;99.79
69766;BME280;57039;48.014;21.384;2023-10-09T05:40:46;101611.28;;;5.63;99.70
69766;BME280;57039;48.014;21.384;2023-10-09T05:41:56;101616.37;;;5.69;99.61
69766;BME280;57039;48.014;21.384;2023-10-09T05:43:12;101622.44;;;5.70;99.47
69766;BME280;57039;48.014;21.384;2023-10-09T05:44:35;101617.22;;;5.71;99.36
69766;BME280;57039;48.014;21.384;2023-10-09T05:45:57;101611.97;;;5.75;99.26
69766;BME280;57039;48.014;21.384;2023-10-09T05:47:12;101599.00;;;5.71;99.30
69766;BME280;57039;48.014;21.384;2023-10-09T05:48:30;101591.88;;;5.80;99.11
69766;BME280;57039;48.014;21.384;2023-10-09T05:49:42;101585.66;;;5.88;99.13
69766;BME280;57039;48.014;21.384;2023-10-09T05:51:05;101593.37;;;5.96;98.92
69766;BME280;57039;48.014;21.384;2023-10-09T05:52:37;101582.91;;;5.99;98.61
69766;BME280;57039;48.014;21.384;2023-10-09T05:53:43;101577.62;;;6.02;98.28
69766;BME280;57039;48.014;21.384;2023-10-09T05:54:45;101575.78;;;6.09;98.04
69766;BME280;57039;48.014;21.384;2023-10-09T05:56:17;101583.03;;;6.38;97.69
69766;BME280;57039;48.014;21.384;2023-10-09T05:57:39;101577.06;;;6.73;96.50
69766;BME280;57039;48.014;21.384;2023-10-09T05:58:54;101576.50;;;6.98;95.33
69766;BME280;57039;48.014;21.384;2023-10-09T06:00:16;101576.59;;;6.95;94.19
69766;BME280;57039;48.014;21.384;2023-10-09T06:01:39;101572.44;;;6.86;93.21
69766;BME280;57039;48.014;21.384;2023-10-09T06:02:59;101566.38;;;6.84;92.58
69766;BME280;57039;48.014;21.384;2023-10-09T06:04:21;101563.41;;;7.37;91.91